Time;durP1;ratioP1;P1;durP2;ratioP2;P2;SDS_P1;SDS_P2;PMS_P1;PMS_P2;Temp;Humidity;BMP_temperature;BMP_pressure;BME280_temperature;BME280_humidity;BME280_pressure;Samples;Min_cycle;Max_cycle;Signal;HPM_P1;HPM_P2
2020/12/26 00:02:26;;;;;;;16.25;10.10;;;;;;;2.84;77.10;96435.72;1670295;84;21081;-83
2020/12/26 00:04:55;;;;;;;15.95;10.08;;;;;;;2.79;77.38;96436.53;1678252;84;21220;-85
2020/12/26 00:07:23;;;;;;;16.60;10.75;;;;;;;2.76;77.73;96440.63;1631120;85;22188;-82
2020/12/26 00:09:53;;;;;;;15.72;10.13;;;;;;;2.77;77.70;96443.58;1651832;85;21189;-84
2020/12/26 00:12:28;;;;;;;15.80;11.05;;;;;;;2.75;77.90;96446.30;1638142;85;21077;-85
2020/12/26 00:14:57;;;;;;;16.10;9.88;;;;;;;2.74;77.76;96442.50;1642771;86;21166;-84
2020/12/26 00:17:32;;;;;;;14.75;9.30;;;;;;;2.70;77.89;96459.23;1637630;86;21116;-84
2020/12/26 00:20:09;;;;;;;14.15;9.55;;;;;;;2.66;77.88;96456.83;1637257;85;21366;-84
2020/12/26 00:22:38;;;;;;;13.58;9.73;;;;;;;2.63;78.03;96460.95;1640285;86;21093;-83
2020/12/26 00:25:07;;;;;;;15.72;10.00;;;;;;;2.65;78.25;96456.47;1643284;83;21049;-83
2020/12/26 00:27:43;;;;;;;15.95;9.55;;;;;;;2.66;78.21;96456.00;1609312;85;21259;-83
2020/12/26 00:30:12;;;;;;;13.18;9.23;;;;;;;2.65;77.95;96462.14;1644752;85;21168;-85
2020/12/26 00:32:43;;;;;;;16.00;9.53;;;;;;;2.58;77.90;96464.80;1649691;85;21379;-84
2020/12/26 00:35:12;;;;;;;16.80;10.30;;;;;;;2.51;77.94;96463.08;1645273;86;21100;-83
2020/12/26 00:38:02;;;;;;;14.70;10.28;;;;;;;2.49;78.12;96468.00;1674208;83;21163;-84
2020/12/26 00:40:30;;;;;;;15.38;10.32;;;;;;;2.51;78.11;96469.58;1683678;82;21080;-81
2020/12/26 00:43:00;;;;;;;15.55;9.60;;;;;;;2.52;78.26;96466.51;1640940;84;21168;-82
2020/12/26 00:46:12;;;;;;;14.47;9.35;;;;;;;2.55;78.13;96464.55;1655921;81;21224;-83
2020/12/26 00:48:45;;;;;;;16.35;9.30;;;;;;;2.52;78.06;96467.33;1734049;78;21118;-85
2020/12/26 00:51:16;;;;;;;16.45;9.25;;;;;;;2.50;77.79;96454.92;1757511;79;21274;-83
2020/12/26 00:54:04;;;;;;;12.37;8.48;;;;;;;2.48;77.86;96465.87;1749005;79;21250;-83
2020/12/26 00:56:39;;;;;;;14.20;9.25;;;;;;;2.51;77.84;96463.55;1752173;79;21065;-85
2020/12/26 00:59:09;;;;;;;15.08;9.40;;;;;;;2.54;77.70;96461.55;1758490;80;22269;-83
2020/12/26 01:01:42;;;;;;;14.87;10.13;;;;;;;2.56;77.40;96467.98;1748511;80;21053;-84
2020/12/26 01:04:18;;;;;;;16.40;10.15;;;;;;;2.55;77.44;96464.98;1743445;80;21070;-85
2020/12/26 01:06:54;;;;;;;14.98;9.58;;;;;;;2.58;77.44;96463.02;1752494;79;21172;-83
2020/12/26 01:09:25;;;;;;;17.40;9.93;;;;;;;2.63;77.31;96461.42;1763542;79;21080;-83
2020/12/26 01:11:55;;;;;;;15.23;10.25;;;;;;;2.66;77.25;96460.73;1751247;80;21213;-83
2020/12/26 01:14:24;;;;;;;16.00;9.58;;;;;;;2.65;77.30;96456.47;1756546;80;21127;-84
2020/12/26 01:16:53;;;;;;;18.05;11.08;;;;;;;2.69;77.16;96454.51;1745327;80;21121;-82
2020/12/26 01:19:27;;;;;;;16.55;10.28;;;;;;;2.77;76.79;96450.91;1756209;79;21184;-83
2020/12/26 01:21:54;;;;;;;15.08;9.68;;;;;;;2.79;76.53;96449.06;1751670;80;21070;-85
2020/12/26 01:24:23;;;;;;;15.70;9.03;;;;;;;2.76;76.05;96455.75;1753774;80;21446;-83
2020/12/26 01:26:52;;;;;;;17.50;10.15;;;;;;;2.71;75.98;96454.39;1753822;80;21175;-85
2020/12/26 01:29:58;;;;;;;13.58;8.40;;;;;;;2.71;76.13;96457.83;1754405;80;21064;-84
2020/12/26 01:32:30;;;;;;;13.65;9.13;;;;;;;2.65;75.90;96458.24;1757217;79;21704;-83
2020/12/26 01:35:01;;;;;;;17.20;10.05;;;;;;;2.63;76.24;96458.35;1746007;80;21089;-81
2020/12/26 01:37:42;;;;;;;17.17;10.37;;;;;;;2.67;76.00;96461.59;1753313;79;21359;-83
2020/12/26 01:40:10;;;;;;;15.10;9.60;;;;;;;2.64;76.07;96463.91;1752805;80;21541;-83
2020/12/26 01:42:39;;;;;;;13.60;8.88;;;;;;;2.62;76.11;96461.89;1743759;79;21310;-82
2020/12/26 01:45:15;;;;;;;17.10;10.32;;;;;;;2.62;75.75;96464.97;1746805;80;21180;-83
2020/12/26 01:47:44;;;;;;;17.35;9.98;;;;;;;2.55;75.74;96468.45;1737629;80;21033;-83
2020/12/26 01:50:15;;;;;;;15.10;8.95;;;;;;;2.53;76.16;96465.09;1749681;80;21215;-82
2020/12/26 01:52:58;;;;;;;15.10;10.30;;;;;;;2.59;76.45;96467.75;1723945;79;21476;-83
2020/12/26 01:55:37;;;;;;;16.40;10.72;;;;;;;2.61;76.78;96466.73;1755960;80;21243;-85
2020/12/26 01:58:09;;;;;;;15.20;10.10;;;;;;;2.66;76.83;96463.33;1753807;80;21078;-81
2020/12/26 02:00:42;;;;;;;15.18;10.18;;;;;;;2.67;76.88;96466.31;1755884;80;21034;-83
2020/12/26 02:03:18;;;;;;;15.80;10.78;;;;;;;2.70;77.04;96469.64;1752190;79;22348;-82
2020/12/26 02:05:47;;;;;;;16.52;9.60;;;;;;;2.71;77.17;96473.42;1758014;79;21283;-84
2020/12/26 02:08:16;;;;;;;14.33;9.90;;;;;;;2.75;77.23;96471.46;1755470;80;21141;-83
2020/12/26 02:10:56;;;;;;;16.35;11.30;;;;;;;2.79;77.29;96479.43;1761440;79;21115;-83
2020/12/26 02:13:34;;;;;;;18.85;11.88;;;;;;;2.83;77.40;96484.77;1749147;80;21543;-83
2020/12/26 02:16:05;;;;;;;23.00;13.35;;;;;;;2.88;77.31;96483.52;1749881;79;21371;-83
2020/12/26 02:18:36;;;;;;;22.65;15.00;;;;;;;2.89;77.21;96490.38;1751400;80;21057;-84
2020/12/26 02:21:05;;;;;;;22.07;14.58;;;;;;;2.91;77.27;96498.09;1761082;79;21261;-83
2020/12/26 02:23:35;;;;;;;21.97;13.25;;;;;;;2.89;77.13;96502.55;1746866;79;21153;-82
2020/12/26 02:26:08;;;;;;;22.58;14.40;;;;;;;2.87;77.21;96503.96;1762105;79;21159;-84
2020/12/26 02:28:40;;;;;;;17.48;11.93;;;;;;;2.85;77.12;96506.31;1745939;80;21215;-84
2020/12/26 02:31:09;;;;;;;20.02;12.80;;;;;;;2.80;77.18;96512.29;1749480;80;21093;-82
2020/12/26 02:33:38;;;;;;;15.40;10.85;;;;;;;2.77;77.26;96513.31;1754236;80;21201;-82
2020/12/26 02:36:08;;;;;;;17.75;10.35;;;;;;;2.73;77.35;96510.58;1750240;80;21065;-80
2020/12/26 02:38:55;;;;;;;17.65;11.80;;;;;;;2.68;77.32;96514.77;1751641;79;21158;-84
2020/12/26 02:41:24;;;;;;;17.95;10.35;;;;;;;2.62;77.45;96516.48;1749229;79;21430;-83
2020/12/26 02:43:58;;;;;;;17.75;11.25;;;;;;;2.63;77.53;96511.64;1742828;79;21155;-82
2020/12/26 02:46:30;;;;;;;17.70;11.85;;;;;;;2.68;77.29;96517.37;1743965;80;21200;-84
2020/12/26 02:48:59;;;;;;;17.55;10.75;;;;;;;2.70;76.91;96514.66;1750481;79;21225;-83
2020/12/26 02:51:32;;;;;;;15.25;9.78;;;;;;;2.69;76.26;96507.80;1759795;80;21506;-83
2020/12/26 02:54:06;;;;;;;15.10;9.43;;;;;;;2.65;75.68;96511.06;1735657;80;21381;-84
2020/12/26 02:56:37;;;;;;;18.37;11.48;;;;;;;2.59;75.04;96503.67;1753060;80;21136;-83
2020/12/26 02:59:07;;;;;;;28.30;17.55;;;;;;;2.52;74.93;96510.69;1742534;79;21141;-84
2020/12/26 03:01:40;;;;;;;15.45;10.28;;;;;;;2.53;74.90;96512.34;1743220;80;21157;-83
2020/12/26 03:04:09;;;;;;;20.17;12.50;;;;;;;2.55;74.54;96511.33;1753601;79;21602;-83
2020/12/26 03:06:38;;;;;;;29.30;18.52;;;;;;;2.48;73.95;96520.44;1772345;79;21610;-84
2020/12/26 03:09:07;;;;;;;151.53;86.63;;;;;;;2.43;73.95;96520.38;1752860;80;21199;-81
2020/12/26 03:11:37;;;;;;;91.02;53.90;;;;;;;2.41;73.98;96520.02;1749339;79;21176;-84
2020/12/26 03:14:31;;;;;;;67.87;41.10;;;;;;;2.45;74.00;96510.73;1759114;78;21079;-84
2020/12/26 03:17:00;;;;;;;28.70;17.95;;;;;;;2.47;73.65;96516.66;1754868;79;21290;-82
2020/12/26 03:19:40;;;;;;;29.67;20.75;;;;;;;2.41;73.60;96518.72;1736179;79;21409;-83
2020/12/26 03:22:13;;;;;;;20.65;13.95;;;;;;;2.34;73.76;96521.83;1764708;79;21096;-85
2020/12/26 03:24:43;;;;;;;18.75;12.43;;;;;;;2.31;73.52;96524.61;1761134;79;21221;-85
2020/12/26 03:27:34;;;;;;;15.60;10.53;;;;;;;2.27;73.69;96514.07;1740623;80;21259;-84
2020/12/26 03:30:41;;;;;;;14.65;8.78;;;;;;;2.25;73.82;96513.31;1761228;79;21483;-84
2020/12/26 03:33:11;;;;;;;15.08;9.25;;;;;;;2.27;73.67;96516.67;1753061;80;22287;-83
2020/12/26 03:36:04;;;;;;;15.63;10.28;;;;;;;2.30;73.69;96512.09;1769065;79;21176;-84
2020/12/26 03:39:03;;;;;;;12.73;8.58;;;;;;;2.36;73.72;96510.38;1757564;79;21179;-84
2020/12/26 03:41:32;;;;;;;14.73;9.55;;;;;;;2.41;73.69;96510.92;1752974;79;21688;-82
2020/12/26 03:44:16;;;;;;;14.90;9.95;;;;;;;2.45;73.38;96510.73;1740349;79;21161;-84
2020/12/26 03:47:06;;;;;;;14.90;9.40;;;;;;;2.44;73.22;96523.37;1753132;80;21388;-84
2020/12/26 03:49:37;;;;;;;14.63;9.30;;;;;;;2.43;73.35;96518.61;1744946;80;21049;-82
2020/12/26 03:52:31;;;;;;;15.58;9.63;;;;;;;2.45;73.15;96515.93;1754327;80;21060;-83
2020/12/26 03:55:05;;;;;;;13.68;8.90;;;;;;;2.40;72.96;96522.25;1752639;79;21197;-81
2020/12/26 03:57:34;;;;;;;12.45;8.55;;;;;;;2.40;73.22;96520.13;1745993;80;21034;-83
2020/12/26 04:00:07;;;;;;;13.93;9.05;;;;;;;2.41;73.30;96516.59;1748700;79;21426;-80
2020/12/26 04:02:51;;;;;;;15.48;9.48;;;;;;;2.41;73.51;96522.61;1746104;79;21243;-84
2020/12/26 04:05:21;;;;;;;15.95;9.38;;;;;;;2.38;73.49;96515.03;1747289;79;21200;-83
2020/12/26 04:07:50;;;;;;;15.05;9.88;;;;;;;2.34;73.56;96508.36;1747513;80;21087;-82
2020/12/26 04:10:18;;;;;;;12.70;9.25;;;;;;;2.32;73.48;96503.75;1747687;79;21735;-84
2020/12/26 04:12:47;;;;;;;15.08;9.60;;;;;;;2.30;73.33;96503.46;1747642;80;21410;-85
2020/12/26 04:15:17;;;;;;;15.00;9.10;;;;;;;2.30;73.12;96509.48;1760271;80;21179;-84
2020/12/26 04:17:46;;;;;;;13.28;9.10;;;;;;;2.32;73.16;96515.44;1749745;80;21073;-85
2020/12/26 04:20:14;;;;;;;14.10;8.98;;;;;;;2.36;73.11;96516.88;1746430;80;21049;-84
2020/12/26 04:22:45;;;;;;;13.60;9.00;;;;;;;2.37;72.84;96518.57;1747587;80;21616;-83
2020/12/26 04:25:15;;;;;;;15.63;9.60;;;;;;;2.38;72.91;96524.13;1754669;79;21204;-83
2020/12/26 04:27:45;;;;;;;17.02;10.15;;;;;;;2.33;73.14;96524.89;1741689;81;21215;-84
2020/12/26 04:30:14;;;;;;;15.63;9.93;;;;;;;2.34;73.48;96528.32;1762252;80;21071;-84
2020/12/26 04:32:43;;;;;;;15.70;10.20;;;;;;;2.34;73.48;96516.16;1749196;79;21139;-82
2020/12/26 04:35:11;;;;;;;17.25;9.90;;;;;;;2.33;73.53;96518.87;1758193;79;21176;-84
2020/12/26 04:37:40;;;;;;;15.80;10.00;;;;;;;2.32;73.54;96520.64;1756198;79;21359;-83
2020/12/26 04:40:08;;;;;;;18.30;10.75;;;;;;;2.33;73.49;96518.87;1761319;80;21164;-81
2020/12/26 04:42:38;;;;;;;15.72;10.35;;;;;;;2.37;73.47;96523.77;1755116;80;21171;-82
2020/12/26 04:45:08;;;;;;;16.85;10.53;;;;;;;2.42;73.43;96522.14;1755671;80;21144;-82
2020/12/26 04:47:58;;;;;;;16.35;10.23;;;;;;;2.41;73.38;96529.11;1750649;80;21061;-84
2020/12/26 04:50:31;;;;;;;15.18;9.90;;;;;;;2.43;73.37;96529.47;1750277;79;22165;-83
2020/12/26 04:53:02;;;;;;;17.07;11.38;;;;;;;2.41;73.55;96538.20;1745916;79;21076;-83
2020/12/26 04:55:35;;;;;;;19.87;12.00;;;;;;;2.45;73.72;96538.02;1751042;80;21168;-85
2020/12/26 04:58:09;;;;;;;29.70;14.35;;;;;;;2.50;73.74;96534.66;1746403;79;21093;-84
2020/12/26 05:00:40;;;;;;;28.00;15.98;;;;;;;2.51;73.54;96539.75;1756077;79;21157;-83
2020/12/26 05:03:20;;;;;;;34.40;17.77;;;;;;;2.55;73.49;96534.72;1760973;79;21152;-83
2020/12/26 05:06:25;;;;;;;38.02;19.98;;;;;;;2.56;73.41;96551.15;1763860;79;21049;-82
2020/12/26 05:09:20;;;;;;;41.55;21.27;;;;;;;2.53;73.21;96556.53;1751499;79;21057;-82
2020/12/26 05:12:15;;;;;;;42.67;21.00;;;;;;;2.57;73.31;96551.52;1751280;79;21073;-82
2020/12/26 05:15:15;;;;;;;41.90;22.95;;;;;;;2.57;73.12;96548.91;1762446;79;21144;-81
2020/12/26 05:17:58;;;;;;;45.50;24.55;;;;;;;2.51;72.62;96546.25;1767414;80;21190;-84
2020/12/26 05:21:05;;;;;;;32.48;17.80;;;;;;;2.47;72.46;96536.14;1766027;80;21172;-82
2020/12/26 05:24:09;;;;;;;30.00;16.48;;;;;;;2.44;72.30;96541.56;1738618;80;21137;-81
2020/12/26 05:26:48;;;;;;;21.68;12.50;;;;;;;2.44;72.16;96543.69;1757068;80;21181;-82
2020/12/26 05:29:49;;;;;;;21.17;12.50;;;;;;;2.37;71.73;96548.89;1766287;79;21701;-83
2020/12/26 05:32:42;;;;;;;23.20;14.60;;;;;;;2.26;71.87;96556.58;1716287;79;21070;-83
2020/12/26 05:35:50;;;;;;;21.93;13.13;;;;;;;2.23;72.43;96560.66;1761835;79;21282;-83
2020/12/26 05:38:59;;;;;;;22.77;13.20;;;;;;;2.21;72.77;96562.06;1732723;80;21156;-83
2020/12/26 05:41:48;;;;;;;25.10;15.25;;;;;;;2.26;72.97;96570.39;1705697;80;21228;-82
2020/12/26 05:44:46;;;;;;;26.12;16.12;;;;;;;2.28;73.04;96567.69;1685716;82;21308;-83
2020/12/26 05:48:12;;;;;;;29.92;19.50;;;;;;;2.29;73.20;96572.78;1733422;80;21184;-84
2020/12/26 05:51:26;;;;;;;26.17;16.90;;;;;;;2.35;73.23;96571.09;1753257;80;21928;-82
2020/12/26 05:54:40;;;;;;;23.38;15.03;;;;;;;2.39;72.97;96580.83;1749648;79;21298;-82
2020/12/26 05:57:54;;;;;;;29.45;17.80;;;;;;;2.44;72.62;96587.03;1655173;85;21150;-82
2020/12/26 06:01:07;;;;;;;27.20;17.23;;;;;;;2.48;72.27;96582.81;1636602;85;21241;-83
2020/12/26 06:04:19;;;;;;;26.93;19.05;;;;;;;2.52;72.00;96582.99;1653176;85;21138;-83
2020/12/26 06:12:47;;;;;;;22.67;13.93;;;;;;;2.58;71.28;96587.80;1716247;81;21129;-84
2020/12/26 06:16:24;;;;;;;21.27;13.55;;;;;;;2.57;71.40;96590.03;1696572;79;21216;-82
2020/12/26 06:19:31;;;;;;;32.60;19.30;;;;;;;2.57;71.24;96597.83;1690987;81;21097;-83
2020/12/26 06:22:49;;;;;;;22.25;13.35;;;;;;;2.57;71.38;96599.59;1684984;78;21203;-81
2020/12/26 06:26:02;;;;;;;23.00;14.70;;;;;;;2.60;71.22;96605.41;1700210;82;21030;-83
2020/12/26 06:29:06;;;;;;;30.80;18.85;;;;;;;2.62;71.11;96619.16;1654604;83;21255;-83
2020/12/26 06:32:09;;;;;;;22.67;15.48;;;;;;;2.60;71.15;96602.81;1632437;83;21059;-84
2020/12/26 06:39:50;;;;;;;17.12;10.72;;;;;;;2.49;71.45;96601.41;1603060;87;21079;-81
2020/12/26 06:46:37;;;;;;;17.15;10.28;;;;;;;2.43;71.79;96625.63;1701754;80;21307;-83
2020/12/26 06:50:01;;;;;;;;;;;;;;;;;;;;;
2020/12/26 13:23:16;;;;;;;24.75;9.95;;;;;;;1.88;57.95;96912.48;1708300;78;21275;-82
2020/12/26 14:17:53;;;;;;;18.27;8.70;;;;;;;1.15;57.38;96951.61;1711660;78;21618;31
2020/12/26 14:32:50;;;;;;;9.70;5.13;;;;;;;1.31;58.53;96976.28;1639093;82;21359;-83
2020/12/26 14:59:48;;;;;;;17.95;9.58;;;;;;;1.28;59.95;96986.34;1728330;78;21455;31
2020/12/26 15:21:57;;;;;;;18.00;11.75;;;;;;;1.18;61.13;96986.91;1730329;79;21206;-83
2020/12/26 15:25:35;;;;;;;47.23;29.65;;;;;;;1.16;61.66;96988.76;1769379;78;21161;-83
2020/12/26 16:16:51;;;;;;;45.25;27.17;;;;;;;0.73;62.83;97024.24;1685365;81;21282;-80
2020/12/26 16:19:47;;;;;;;50.17;29.67;;;;;;;0.73;63.29;97016.47;1668009;82;21113;-84
2020/12/26 16:22:36;;;;;;;43.30;25.45;;;;;;;0.75;63.50;97018.97;1674269;82;21224;-83
2020/12/26 16:25:50;;;;;;;56.95;32.05;;;;;;;0.78;63.54;97030.50;1680606;82;21215;-83
2020/12/26 16:29:10;;;;;;;64.72;33.38;;;;;;;0.79;63.52;97027.81;1703601;82;21235;-83
2020/12/26 16:31:45;;;;;;;54.27;29.85;;;;;;;0.87;63.25;97024.83;1709170;81;21164;-81
2020/12/26 16:34:36;;;;;;;47.45;26.75;;;;;;;0.92;62.96;97028.48;1703016;81;21213;-82
2020/12/26 16:37:32;;;;;;;46.45;26.15;;;;;;;0.93;62.52;97029.69;1689238;82;21054;-82
2020/12/26 16:43:03;;;;;;;58.17;34.40;;;;;;;0.99;62.33;97039.75;1668027;81;21126;-81
2020/12/26 16:46:16;;;;;;;65.95;39.63;;;;;;;1.00;62.44;97038.82;1694363;79;21141;-80
2020/12/26 16:49:15;;;;;;;59.63;34.08;;;;;;;0.93;62.46;97037.47;1763070;79;21172;-83
2020/12/26 16:52:38;;;;;;;53.95;32.40;;;;;;;0.93;62.57;97038.77;1598256;87;22253;-82
2020/12/26 17:02:02;;;;;;;38.38;23.60;;;;;;;0.85;62.67;97040.92;1708088;79;21367;-83
2020/12/26 17:05:27;;;;;;;39.13;23.27;;;;;;;0.91;62.33;97039.77;1701631;78;21172;-84
2020/12/26 17:08:45;;;;;;;45.95;26.35;;;;;;;0.95;62.44;97040.84;1681748;80;21159;-82
2020/12/26 17:11:51;;;;;;;52.65;26.75;;;;;;;1.02;62.50;97053.03;1671768;78;21290;31
2020/12/26 17:44:07;;;;;;;27.60;15.50;;;;;;;1.21;62.00;97084.03;1697960;79;21360;31
2020/12/26 17:47:29;;;;;;;34.27;19.10;;;;;;;1.14;61.94;97091.76;1631553;86;21276;-84
2020/12/26 17:51:17;;;;;;;34.43;19.62;;;;;;;1.18;61.84;97090.66;1665046;81;21110;-79
2020/12/26 17:54:43;;;;;;;30.00;17.55;;;;;;;1.21;61.72;97093.95;1706617;83;21078;-84
2020/12/26 17:58:00;;;;;;;28.80;16.00;;;;;;;1.09;61.87;97094.58;1696670;80;21054;-83
2020/12/26 18:01:15;;;;;;;38.30;18.12;;;;;;;0.87;62.54;97091.39;1696354;83;21082;-83
2020/12/26 18:04:32;;;;;;;38.17;19.73;;;;;;;0.70;62.53;97089.64;1697756;82;21322;-85
2020/12/26 18:57:43;;;;;;;29.35;16.93;;;;;;;0.23;65.08;97164.84;1722315;78;21511;31
2020/12/26 19:00:44;;;;;;;29.70;18.65;;;;;;;0.35;65.08;97160.84;1653275;81;21042;-81
2020/12/26 19:04:23;;;;;;;29.63;20.43;;;;;;;0.40;65.08;97161.92;1681018;83;21187;-85
2020/12/26 19:07:48;;;;;;;28.98;16.10;;;;;;;0.48;64.79;97164.55;1730820;78;21123;-83
2020/12/26 19:10:49;;;;;;;26.25;16.77;;;;;;;0.56;64.71;97175.00;1762070;80;21080;-83
2020/12/26 19:14:02;;;;;;;31.15;17.05;;;;;;;0.64;64.43;97178.05;1680172;81;21370;-86
2020/12/26 19:16:54;;;;;;;37.98;24.43;;;;;;;0.66;64.02;97180.97;1694324;81;21128;-81
2020/12/26 19:20:07;;;;;;;46.15;27.55;;;;;;;0.68;63.81;97194.69;1733947;80;21094;-83
2020/12/26 19:24:04;;;;;;;36.13;23.25;;;;;;;0.68;63.68;97182.19;1741523;80;21524;31
2020/12/26 19:27:35;;;;;;;44.33;23.00;;;;;;;0.70;64.08;97192.85;1655565;79;21231;-83
2020/12/26 19:30:36;;;;;;;42.78;23.18;;;;;;;0.81;63.79;97193.64;1647285;85;21215;-82
2020/12/26 19:33:52;;;;;;;43.85;24.15;;;;;;;0.90;63.71;97182.00;1633159;86;21306;-83
2020/12/26 19:37:10;;;;;;;29.40;19.10;;;;;;;0.95;63.80;97187.34;1643579;85;21105;-83
2020/12/26 19:40:00;;;;;;;35.38;19.25;;;;;;;0.95;63.65;97189.06;1642539;85;21081;-81
2020/12/26 19:43:23;;;;;;;33.85;18.82;;;;;;;0.85;63.87;97186.56;1757389;78;21212;-83
2020/12/26 19:58:11;;;;;;;17.77;10.65;;;;;;;0.42;64.84;97205.00;1684463;78;26583;-85
2020/12/26 20:01:29;;;;;;;22.37;11.43;;;;;;;0.38;64.95;97206.05;1627927;83;21303;-83
2020/12/26 20:04:40;;;;;;;21.40;12.70;;;;;;;0.42;64.79;97205.00;1614081;87;21120;-84
2020/12/26 20:15:04;;;;;;;24.50;13.45;;;;;;;0.47;65.16;97215.12;1681938;79;21830;-83
2020/12/26 20:18:35;;;;;;;21.97;12.55;;;;;;;0.58;65.02;97218.05;1712072;79;21245;31
2020/12/26 20:24:09;;;;;;;35.17;18.50;;;;;;;0.64;64.84;97224.70;1738805;81;21070;-83
2020/12/26 20:27:19;;;;;;;38.15;19.40;;;;;;;0.71;64.72;97223.50;1734057;81;21077;-83
2020/12/26 20:30:10;;;;;;;37.15;19.23;;;;;;;0.70;64.82;97223.12;1703626;82;21048;-86
2020/12/26 20:33:17;;;;;;;40.67;20.02;;;;;;;0.76;64.72;97226.71;1673458;83;21105;-84
2020/12/26 20:36:29;;;;;;;27.40;14.33;;;;;;;0.79;64.62;97227.88;1736767;81;21096;-85
2020/12/26 20:39:22;;;;;;;22.60;12.47;;;;;;;0.73;64.70;97221.23;1718729;81;21093;-83
2020/12/26 20:42:44;;;;;;;21.27;12.43;;;;;;;0.68;64.92;97219.77;1704953;81;21305;-83
2020/12/26 20:46:11;;;;;;;27.52;14.07;;;;;;;0.63;64.89;97219.98;1676464;80;21401;-84
2020/12/26 20:49:14;;;;;;;26.07;14.53;;;;;;;0.54;65.09;97230.80;1738434;79;21066;-83
2020/12/26 20:54:31;;;;;;;31.87;16.23;;;;;;;0.58;65.07;97232.31;1743686;78;21186;-81
2020/12/26 20:57:55;;;;;;;25.92;14.38;;;;;;;0.59;65.06;97239.16;1711430;78;21303;-81
2020/12/26 21:04:19;;;;;;;25.72;14.78;;;;;;;0.68;64.74;97250.88;1753164;80;21180;-82
2020/12/26 21:10:08;;;;;;;25.65;12.82;;;;;;;0.68;64.65;97232.27;1706950;78;21143;-82
2020/12/26 21:13:26;;;;;;;25.72;14.35;;;;;;;0.67;64.48;97239.66;1698850;78;22666;-80
2020/12/26 21:20:28;;;;;;;43.70;24.40;;;;;;;0.64;64.48;97243.69;1750973;78;21261;-83
2020/12/26 21:23:35;;;;;;;34.38;16.23;;;;;;;0.64;64.73;97240.25;1663087;82;21267;-84
2020/12/26 21:26:54;;;;;;;31.02;18.15;;;;;;;0.59;64.80;97242.22;1686733;83;21640;-84
2020/12/26 21:30:25;;;;;;;32.45;15.43;;;;;;;0.58;65.04;97240.09;1664375;83;21120;-81
2020/12/26 21:33:43;;;;;;;34.37;16.40;;;;;;;0.60;64.94;97243.92;1673355;80;21024;-81
2020/12/26 21:37:08;;;;;;;37.10;18.77;;;;;;;0.67;64.93;97236.23;1665514;83;21139;-82
2020/12/26 21:41:00;;;;;;;28.42;14.55;;;;;;;0.74;64.66;97239.75;1650830;81;21287;31
2020/12/26 21:44:42;;;;;;;26.73;14.55;;;;;;;0.80;64.38;97224.37;1624196;82;21204;31
2020/12/26 21:51:56;;;;;;;49.77;23.27;;;;;;;0.71;64.19;97236.03;1563950;88;20220;-84
2020/12/26 21:55:19;;;;;;;69.05;31.20;;;;;;;0.73;64.38;97222.98;1534261;91;21384;-82
2020/12/26 21:58:34;;;;;;;64.03;32.28;;;;;;;0.79;64.15;97217.05;1512491;87;21336;-83
2020/12/26 22:02:02;;;;;;;68.30;33.15;;;;;;;0.83;63.98;97212.57;1518976;90;21285;-80
2020/12/26 22:04:48;;;;;;;36.13;19.23;;;;;;;0.91;63.68;97201.81;1848141;77;28122;-83
2020/12/26 22:07:34;;;;;;;28.00;15.48;;;;;;;0.86;63.56;97206.38;1826745;78;21131;-83
2020/12/26 22:10:14;;;;;;;30.25;19.10;;;;;;;0.84;63.33;97210.81;1766279;76;21421;-81
2020/12/26 22:12:54;;;;;;;40.78;28.83;;;;;;;0.78;63.52;97209.36;1722479;78;21143;-84
2020/12/26 22:16:11;;;;;;;22.45;12.45;;;;;;;0.73;63.70;97213.45;1723222;79;21248;-82
2020/12/26 22:19:19;;;;;;;31.00;18.57;;;;;;;0.66;63.69;97204.76;1762986;76;21641;-84
2020/12/26 22:21:53;;;;;;;34.85;19.82;;;;;;;0.52;64.23;97206.23;1750785;82;21105;-83
2020/12/26 22:24:23;;;;;;;34.27;18.37;;;;;;;0.50;64.66;97209.81;1726692;83;21372;-83
2020/12/26 22:27:09;;;;;;;71.35;36.77;;;;;;;0.51;64.84;97210.20;1723218;82;21149;-85
2020/12/26 22:29:41;;;;;;;76.20;38.45;;;;;;;0.47;65.20;97200.42;1727452;83;21179;-84
2020/12/26 22:32:14;;;;;;;55.25;30.17;;;;;;;0.47;65.23;97201.72;1725527;82;21101;-82
2020/12/26 22:34:44;;;;;;;49.95;27.22;;;;;;;0.49;65.38;97196.02;1751006;82;21042;-83
2020/12/26 22:37:14;;;;;;;42.80;23.98;;;;;;;0.51;65.30;97192.89;1726708;83;21347;-83
2020/12/26 22:39:46;;;;;;;44.40;24.92;;;;;;;0.50;65.31;97188.63;1751193;82;21062;-84
2020/12/26 22:42:15;;;;;;;43.00;25.25;;;;;;;0.52;65.19;97185.95;1751542;82;21049;-84
2020/12/26 22:44:45;;;;;;;43.02;25.37;;;;;;;0.48;65.26;97190.92;1751398;82;21070;-85
2020/12/26 22:47:20;;;;;;;50.63;28.23;;;;;;;0.42;65.30;97196.39;1751663;82;21455;-83
2020/12/26 22:49:51;;;;;;;51.90;27.50;;;;;;;0.37;65.42;97208.26;1751115;82;21361;-83
2020/12/26 22:52:21;;;;;;;40.52;22.65;;;;;;;0.36;65.62;97209.17;1750983;82;21101;-84
2020/12/26 22:54:51;;;;;;;45.95;24.77;;;;;;;0.37;65.48;97211.31;1750747;82;21208;-82
2020/12/26 22:57:19;;;;;;;39.08;22.13;;;;;;;0.31;65.62;97216.31;1750622;82;21157;-85
2020/12/26 22:59:50;;;;;;;37.65;21.75;;;;;;;0.25;65.69;97213.55;1750934;82;21177;-83
2020/12/26 23:02:20;;;;;;;35.92;20.32;;;;;;;0.21;65.72;97222.36;1723923;82;21546;-83
2020/12/26 23:04:50;;;;;;;33.60;20.05;;;;;;;0.24;65.64;97216.22;1750683;81;21117;-83
2020/12/26 23:07:19;;;;;;;32.55;16.85;;;;;;;0.28;65.50;97213.85;1750606;82;21176;-84
2020/12/26 23:09:50;;;;;;;29.35;14.75;;;;;;;0.29;65.40;97219.41;1750874;82;21204;-85
2020/12/26 23:12:21;;;;;;;32.53;16.17;;;;;;;0.25;65.32;97214.01;1750536;82;21113;-82
2020/12/26 23:14:50;;;;;;;31.97;15.15;;;;;;;0.17;65.45;97216.92;1750318;82;21199;-83
2020/12/26 23:17:19;;;;;;;28.27;15.43;;;;;;;0.06;65.60;97208.84;1750160;82;21180;-85
2020/12/26 23:20:17;;;;;;;29.47;15.30;;;;;;;0.03;65.65;97209.41;1750098;80;21097;-84
2020/12/26 23:22:46;;;;;;;24.43;13.75;;;;;;;-0.01;65.62;97208.24;1792862;80;21113;-84
2020/12/26 23:25:18;;;;;;;26.62;14.58;;;;;;;-0.07;65.85;97213.70;1793400;80;21083;-84
2020/12/26 23:27:55;;;;;;;28.92;15.68;;;;;;;-0.12;65.86;97209.20;1793406;80;21422;-84
2020/12/26 23:30:23;;;;;;;30.15;14.47;;;;;;;-0.15;65.94;97210.63;1792863;80;21047;-84
2020/12/26 23:32:53;;;;;;;24.55;15.05;;;;;;;-0.20;65.94;97206.09;1793104;80;21059;-84
2020/12/26 23:35:23;;;;;;;24.65;12.23;;;;;;;-0.32;66.08;97211.36;1793076;80;21052;-82
2020/12/26 23:37:52;;;;;;;26.25;12.98;;;;;;;-0.43;66.16;97208.85;1794473;80;21024;-83
2020/12/26 23:40:24;;;;;;;21.55;12.15;;;;;;;-0.51;66.36;97202.73;1795149;80;23924;-82
2020/12/26 23:42:54;;;;;;;24.10;12.55;;;;;;;-0.51;66.35;97199.30;1792737;80;21084;-83
2020/12/26 23:45:25;;;;;;;;;;;;;;;-0.54;66.41;97204.97;1795545;80;21143;-83
2020/12/26 23:47:56;;;;;;;27.07;12.47;;;;;;;-0.60;66.51;97200.52;1794485;80;20225;-84
2020/12/26 23:50:29;;;;;;;22.10;12.45;;;;;;;-0.67;66.74;97211.59;1795330;80;21043;-84
2020/12/26 23:53:00;;;;;;;27.07;12.58;;;;;;;-0.71;66.77;97203.59;1793247;80;21494;-84
2020/12/26 23:55:30;;;;;;;24.37;13.50;;;;;;;-0.74;66.75;97202.41;1793665;80;21083;-80
2020/12/26 23:58:07;;;;;;;26.27;14.60;;;;;;;-0.79;66.84;97200.92;1794804;80;21107;-82
